Time;durP1;ratioP1;P1;durP2;ratioP2;P2;SDS_P1;SDS_P2;PMS_P1;PMS_P2;Temp;Humidity;BMP_temperature;BMP_pressure;BME280_temperature;BME280_humidity;BME280_pressure;Samples;Min_cycle;Max_cycle;Signal;HPM_P1;HPM_P2
2023/03/01 00:01:03;;;;;;;10.57;7.93;;;;;;;;;;5136912;27;20532;-60
2023/03/01 00:03:30;;;;;;;13.32;7.88;;;;;;;;;;5145295;27;20538;-60
2023/03/01 00:05:56;;;;;;;20.58;8.85;;;;;;;;;;5144883;27;20058;-60
2023/03/01 00:08:22;;;;;;;9.82;7.47;;;;;;;;;;5145646;27;20825;-62
2023/03/01 00:10:49;;;;;;;11.80;8.60;;;;;;;;;;5129693;27;20048;-62
2023/03/01 00:13:15;;;;;;;10.80;7.13;;;;;;;;;;5135108;27;20062;-61
2023/03/01 00:15:41;;;;;;;10.43;7.90;;;;;;;;;;5125194;27;20079;-62
2023/03/01 00:18:08;;;;;;;11.90;7.57;;;;;;;;;;5145147;27;20043;-63
2023/03/01 00:20:34;;;;;;;14.75;8.48;;;;;;;;;;5107297;27;20054;-62
2023/03/01 00:23:01;;;;;;;10.20;7.55;;;;;;;;;;5131889;27;20122;-61
2023/03/01 00:25:27;;;;;;;11.95;8.43;;;;;;;;;;5131367;27;20517;-62
2023/03/01 00:27:53;;;;;;;14.10;8.88;;;;;;;;;;5124248;27;20112;-61
2023/03/01 00:30:20;;;;;;;12.40;8.05;;;;;;;;;;5145725;27;20557;-60
2023/03/01 00:32:46;;;;;;;10.63;8.52;;;;;;;;;;5143128;27;20043;-62
2023/03/01 00:35:12;;;;;;;18.08;9.25;;;;;;;;;;5137629;27;20066;-60
2023/03/01 00:37:40;;;;;;;14.73;9.82;;;;;;;;;;5127346;27;20047;-60
2023/03/01 00:40:07;;;;;;;20.77;11.38;;;;;;;;;;5143309;27;20062;-60
2023/03/01 00:42:33;;;;;;;15.98;10.25;;;;;;;;;;5141902;27;20102;-61
2023/03/01 00:45:00;;;;;;;17.55;9.93;;;;;;;;;;5138571;27;20062;-62
2023/03/01 00:47:28;;;;;;;15.43;9.57;;;;;;;;;;5138048;27;20048;-60
2023/03/01 00:49:54;;;;;;;18.50;9.82;;;;;;;;;;5123882;27;20532;-60
2023/03/01 00:52:20;;;;;;;15.52;10.02;;;;;;;;;;5141643;27;20140;-61
2023/03/01 00:54:47;;;;;;;17.73;9.90;;;;;;;;;;5126642;27;20079;-61
2023/03/01 00:57:13;;;;;;;17.73;10.90;;;;;;;;;;5123050;27;20052;-60
2023/03/01 00:59:39;;;;;;;18.20;10.68;;;;;;;;;;5123552;27;20101;-61
2023/03/01 01:02:06;;;;;;;14.77;9.50;;;;;;;;;;5135062;27;20608;-62
2023/03/01 01:04:32;;;;;;;15.77;9.60;;;;;;;;;;5143553;27;20076;-62
2023/03/01 01:06:58;;;;;;;13.93;9.55;;;;;;;;;;5125659;27;20081;-61
2023/03/01 01:09:25;;;;;;;15.07;9.60;;;;;;;;;;5124982;27;20051;-62
2023/03/01 01:11:51;;;;;;;15.73;9.48;;;;;;;;;;5143163;27;20594;-62
2023/03/01 01:14:18;;;;;;;14.57;9.80;;;;;;;;;;5142472;27;20051;-60
2023/03/01 01:16:45;;;;;;;15.05;9.38;;;;;;;;;;5126120;27;20050;-61
2023/03/01 01:19:11;;;;;;;18.50;10.50;;;;;;;;;;5123523;27;20083;-60
2023/03/01 01:21:37;;;;;;;17.38;9.70;;;;;;;;;;5123640;27;20059;-61
2023/03/01 01:24:04;;;;;;;14.27;9.93;;;;;;;;;;5131879;27;20054;-60
2023/03/01 01:26:32;;;;;;;16.38;9.85;;;;;;;;;;5126767;27;20551;-63
2023/03/01 01:29:00;;;;;;;16.85;10.73;;;;;;;;;;5124074;27;20139;-60
2023/03/01 01:31:28;;;;;;;17.80;9.77;;;;;;;;;;5127624;27;20086;-62
2023/03/01 01:33:55;;;;;;;20.08;11.23;;;;;;;;;;5143468;27;20244;-62
2023/03/01 01:36:21;;;;;;;19.05;10.65;;;;;;;;;;5136507;27;20047;-61
2023/03/01 01:38:47;;;;;;;15.13;10.60;;;;;;;;;;5143754;27;20058;-61
2023/03/01 01:41:14;;;;;;;29.25;11.57;;;;;;;;;;5131722;27;20055;-62
2023/03/01 01:43:42;;;;;;;17.40;10.65;;;;;;;;;;5123079;27;20095;-62
2023/03/01 01:46:14;;;;;;;22.25;11.48;;;;;;;;;;5124241;27;20048;-60
2023/03/01 01:48:42;;;;;;;22.40;11.35;;;;;;;;;;5122896;27;20087;-62
2023/03/01 01:51:23;;;;;;;19.50;10.57;;;;;;;;;;5135095;27;20039;-61
2023/03/01 01:53:52;;;;;;;15.27;9.93;;;;;;;;;;5143186;27;20051;-60
2023/03/01 01:56:19;;;;;;;14.43;9.68;;;;;;;;;;5131376;27;20085;-62
2023/03/01 01:58:47;;;;;;;14.32;9.23;;;;;;;;;;5143649;27;20130;-60
2023/03/01 02:01:13;;;;;;;15.55;9.75;;;;;;;;;;5142697;27;20051;-60
2023/03/01 02:03:42;;;;;;;16.52;9.18;;;;;;;;;;5134278;27;20043;-62
2023/03/01 02:06:32;;;;;;;13.45;9.10;;;;;;;;;;5136870;27;20056;-61
2023/03/01 02:09:02;;;;;;;12.32;8.25;;;;;;;;;;5116197;27;20040;-61
2023/03/01 02:11:30;;;;;;;12.98;9.05;;;;;;;;;;5143675;27;20132;-60
2023/03/01 02:13:56;;;;;;;17.02;9.27;;;;;;;;;;5118751;27;20059;-61
2023/03/01 02:16:22;;;;;;;13.15;8.73;;;;;;;;;;5108596;27;20059;-61
2023/03/01 02:18:49;;;;;;;13.55;9.27;;;;;;;;;;5135973;27;20109;-61
2023/03/01 02:21:37;;;;;;;12.57;9.43;;;;;;;;;;5132084;27;20174;-63
2023/03/01 02:24:10;;;;;;;13.95;9.02;;;;;;;;;;5142947;27;20134;-60
2023/03/01 02:26:41;;;;;;;13.00;8.93;;;;;;;;;;5129841;27;20984;-60
2023/03/01 02:29:08;;;;;;;14.18;8.95;;;;;;;;;;5134383;27;20051;-62
2023/03/01 02:31:44;;;;;;;12.20;9.30;;;;;;;;;;5136030;27;20053;-61
2023/03/01 02:34:18;;;;;;;14.40;9.45;;;;;;;;;;5134935;27;20555;-61
2023/03/01 02:36:56;;;;;;;11.45;8.52;;;;;;;;;;5130747;27;20132;-60
2023/03/01 02:39:27;;;;;;;10.88;8.00;;;;;;;;;;5142779;27;20055;-60
2023/03/01 02:41:54;;;;;;;14.50;9.20;;;;;;;;;;5142388;27;20828;-61
2023/03/01 02:44:21;;;;;;;12.20;9.18;;;;;;;;;;5141594;27;20425;-62
2023/03/01 02:46:49;;;;;;;15.45;9.68;;;;;;;;;;5137050;27;20637;-60
2023/03/01 02:49:20;;;;;;;14.55;10.02;;;;;;;;;;5122886;27;20055;-61
2023/03/01 02:51:52;;;;;;;14.70;9.63;;;;;;;;;;5122789;27;20043;-61
2023/03/01 02:54:28;;;;;;;13.20;9.57;;;;;;;;;;5134732;27;20143;-60
2023/03/01 02:56:55;;;;;;;13.00;9.73;;;;;;;;;;5126434;27;20156;-60
2023/03/01 02:59:24;;;;;;;15.82;9.88;;;;;;;;;;5141323;27;20751;-60
2023/03/01 03:01:50;;;;;;;13.38;10.43;;;;;;;;;;5147332;27;20142;-62
2023/03/01 03:04:17;;;;;;;11.35;8.65;;;;;;;;;;5146668;27;20059;-61
2023/03/01 03:06:45;;;;;;;13.65;9.90;;;;;;;;;;5130127;27;20594;-61
2023/03/01 03:09:11;;;;;;;15.20;9.40;;;;;;;;;;5142364;27;20043;-61
2023/03/01 03:11:42;;;;;;;13.43;9.77;;;;;;;;;;5135690;27;20056;-61
2023/03/01 03:14:12;;;;;;;13.35;9.02;;;;;;;;;;5125921;27;20992;-61
2023/03/01 03:16:40;;;;;;;14.70;10.27;;;;;;;;;;5136320;27;20058;-61
2023/03/01 03:19:07;;;;;;;13.63;9.70;;;;;;;;;;5134819;27;20044;-62
2023/03/01 03:21:33;;;;;;;13.60;9.65;;;;;;;;;;5139614;27;20048;-62
2023/03/01 03:24:00;;;;;;;14.18;9.85;;;;;;;;;;5126319;27;20135;-63
2023/03/01 03:26:27;;;;;;;14.88;10.18;;;;;;;;;;5125675;27;20139;-61
2023/03/01 03:28:53;;;;;;;18.13;9.98;;;;;;;;;;5127678;27;20056;-61
2023/03/01 03:31:20;;;;;;;15.98;9.82;;;;;;;;;;5144646;27;20043;-60
2023/03/01 03:33:46;;;;;;;11.93;9.90;;;;;;;;;;5144525;27;20050;-60
2023/03/01 03:36:17;;;;;;;13.95;9.95;;;;;;;;;;5138411;27;20059;-62
2023/03/01 03:38:45;;;;;;;14.60;9.88;;;;;;;;;;5143319;27;20055;-61
2023/03/01 03:41:12;;;;;;;12.18;9.82;;;;;;;;;;5144044;27;20085;-61
2023/03/01 03:43:40;;;;;;;14.88;9.57;;;;;;;;;;5143501;27;20043;-60
2023/03/01 03:46:06;;;;;;;14.15;9.70;;;;;;;;;;5144580;27;20084;-60
2023/03/01 03:48:34;;;;;;;14.23;9.90;;;;;;;;;;5125538;27;20043;-62
2023/03/01 03:51:00;;;;;;;14.18;10.10;;;;;;;;;;5141187;27;20591;-62
2023/03/01 03:53:28;;;;;;;16.35;10.93;;;;;;;;;;5135949;27;20121;-62
2023/03/01 03:55:55;;;;;;;13.80;10.00;;;;;;;;;;5130123;27;20051;-61
2023/03/01 03:58:22;;;;;;;13.50;10.10;;;;;;;;;;5125298;27;20792;-60
2023/03/01 04:00:50;;;;;;;16.35;11.00;;;;;;;;;;5141733;27;20052;-61
2023/03/01 04:03:18;;;;;;;16.92;10.32;;;;;;;;;;5135375;27;20062;-61
2023/03/01 04:05:45;;;;;;;14.25;9.90;;;;;;;;;;5130891;27;20515;-61
2023/03/01 04:08:11;;;;;;;13.63;10.30;;;;;;;;;;5143533;27;20071;-61
2023/03/01 04:10:42;;;;;;;15.38;10.32;;;;;;;;;;5135632;27;20521;-62
2023/03/01 04:13:13;;;;;;;16.30;10.95;;;;;;;;;;5144119;27;20501;-60
2023/03/01 04:15:40;;;;;;;15.27;10.40;;;;;;;;;;5144768;27;20509;-60
2023/03/01 04:18:06;;;;;;;17.00;10.75;;;;;;;;;;5144556;27;20517;-61
2023/03/01 04:20:34;;;;;;;14.98;10.63;;;;;;;;;;5134278;27;20052;-61
2023/03/01 04:23:12;;;;;;;13.48;9.55;;;;;;;;;;5125882;27;20043;-61
2023/03/01 04:25:40;;;;;;;16.75;10.75;;;;;;;;;;5139225;27;20043;-61
2023/03/01 04:28:08;;;;;;;14.80;9.95;;;;;;;;;;5138024;27;20460;-61
2023/03/01 04:30:35;;;;;;;13.65;9.88;;;;;;;;;;5142730;27;20047;-61
2023/03/01 04:33:03;;;;;;;14.65;9.98;;;;;;;;;;5146157;27;20069;-62
2023/03/01 04:35:30;;;;;;;13.10;9.68;;;;;;;;;;5145311;27;20449;-62
2023/03/01 04:37:57;;;;;;;14.10;10.95;;;;;;;;;;5119685;27;20430;-61
2023/03/01 04:40:23;;;;;;;13.73;9.32;;;;;;;;;;5122443;27;20075;-61
2023/03/01 04:42:49;;;;;;;15.43;10.18;;;;;;;;;;5144981;27;20104;-61
2023/03/01 04:45:16;;;;;;;13.40;10.13;;;;;;;;;;5145798;27;20051;-61
2023/03/01 04:47:44;;;;;;;15.35;9.65;;;;;;;;;;5128502;27;20130;-62
2023/03/01 04:50:11;;;;;;;16.73;10.52;;;;;;;;;;5135429;27;20073;-60
2023/03/01 04:52:37;;;;;;;18.35;11.75;;;;;;;;;;5142672;27;20067;-60
2023/03/01 04:55:05;;;;;;;15.50;10.52;;;;;;;;;;5144409;27;20154;-62
2023/03/01 04:57:32;;;;;;;18.45;11.07;;;;;;;;;;5141734;27;20047;-62
2023/03/01 04:59:58;;;;;;;18.80;11.43;;;;;;;;;;5144532;27;20101;-61
2023/03/01 05:02:25;;;;;;;15.57;9.60;;;;;;;;;;5145456;27;20557;-61
2023/03/01 05:04:51;;;;;;;13.65;10.20;;;;;;;;;;5135934;27;20062;-61
2023/03/01 05:07:19;;;;;;;17.10;11.05;;;;;;;;;;5144738;27;20051;-63
2023/03/01 05:09:46;;;;;;;15.68;10.63;;;;;;;;;;5144598;27;20043;-62
2023/03/01 05:12:12;;;;;;;18.20;10.55;;;;;;;;;;5115583;27;20529;-61
2023/03/01 05:14:39;;;;;;;13.80;9.38;;;;;;;;;;5136366;27;20078;-60
2023/03/01 05:17:05;;;;;;;14.82;10.35;;;;;;;;;;5144239;27;20054;-60
2023/03/01 05:19:32;;;;;;;14.45;9.85;;;;;;;;;;5129067;27;20171;-62
2023/03/01 05:22:03;;;;;;;15.65;10.57;;;;;;;;;;5112476;27;20436;-60
2023/03/01 05:24:32;;;;;;;13.05;9.77;;;;;;;;;;5132966;27;20496;-61
2023/03/01 05:26:58;;;;;;;13.98;9.52;;;;;;;;;;5141104;27;20050;-61
2023/03/01 05:29:26;;;;;;;19.08;10.70;;;;;;;;;;5125262;27;20567;-60
2023/03/01 05:31:57;;;;;;;13.38;10.35;;;;;;;;;;5125486;27;20501;-61
2023/03/01 05:34:32;;;;;;;15.07;10.75;;;;;;;;;;5123499;27;20051;-61
2023/03/01 05:36:58;;;;;;;19.42;10.77;;;;;;;;;;5130803;27;20134;-62
2023/03/01 05:39:26;;;;;;;18.20;12.07;;;;;;;;;;5144770;27;20550;-61
2023/03/01 05:41:53;;;;;;;15.23;10.98;;;;;;;;;;5131484;27;20135;-61
2023/03/01 05:44:20;;;;;;;14.18;10.15;;;;;;;;;;5144837;27;20057;-61
2023/03/01 05:46:46;;;;;;;12.93;9.93;;;;;;;;;;5135480;27;20054;-61
2023/03/01 05:49:13;;;;;;;15.38;10.85;;;;;;;;;;5138126;27;20510;-61
2023/03/01 05:51:41;;;;;;;16.70;10.32;;;;;;;;;;5124987;27;20098;-60
2023/03/01 05:54:07;;;;;;;14.32;10.23;;;;;;;;;;5126063;27;20139;-60
2023/03/01 05:56:34;;;;;;;18.73;10.85;;;;;;;;;;5130345;27;20511;-60
2023/03/01 05:59:01;;;;;;;17.95;11.63;;;;;;;;;;5141004;27;20051;-62
2023/03/01 06:01:29;;;;;;;16.33;10.43;;;;;;;;;;5128359;27;20531;-61
2023/03/01 06:03:56;;;;;;;15.52;10.30;;;;;;;;;;5125157;27;20143;-62
2023/03/01 06:06:23;;;;;;;13.35;10.40;;;;;;;;;;5141985;27;20134;-62
2023/03/01 06:08:50;;;;;;;18.58;11.57;;;;;;;;;;5132506;27;20656;-62
2023/03/01 06:11:16;;;;;;;15.52;10.43;;;;;;;;;;5127905;27;20481;-61
2023/03/01 06:13:43;;;;;;;16.52;11.32;;;;;;;;;;5143888;27;20520;-61
2023/03/01 06:16:10;;;;;;;18.52;10.25;;;;;;;;;;5132744;27;20109;-62
2023/03/01 06:18:37;;;;;;;17.63;11.98;;;;;;;;;;5130459;27;20043;-63
2023/03/01 06:21:04;;;;;;;18.80;11.85;;;;;;;;;;5111596;27;20063;-63
2023/03/01 06:23:31;;;;;;;17.15;11.70;;;;;;;;;;5142712;27;20051;-62
2023/03/01 06:25:57;;;;;;;17.05;11.63;;;;;;;;;;5144062;27;20047;-61
2023/03/01 06:28:23;;;;;;;18.77;11.73;;;;;;;;;;5127111;27;20059;-63
2023/03/01 06:30:50;;;;;;;17.73;11.43;;;;;;;;;;5128459;27;20489;-60
2023/03/01 06:33:18;;;;;;;16.48;11.38;;;;;;;;;;5129526;27;20055;-61
2023/03/01 06:35:44;;;;;;;18.20;12.60;;;;;;;;;;5146719;27;20104;-63
2023/03/01 06:38:10;;;;;;;18.15;11.80;;;;;;;;;;5127704;27;20495;-63
2023/03/01 06:40:37;;;;;;;19.83;13.00;;;;;;;;;;5138837;27;20050;-61
2023/03/01 06:43:04;;;;;;;18.90;11.63;;;;;;;;;;5138212;27;20079;-62
2023/03/01 06:45:30;;;;;;;22.08;12.40;;;;;;;;;;5137854;27;20051;-63
2023/03/01 06:48:06;;;;;;;17.52;12.45;;;;;;;;;;5144954;27;20055;-61
2023/03/01 06:50:33;;;;;;;21.88;12.68;;;;;;;;;;5127516;27;20485;-61
2023/03/01 06:53:00;;;;;;;20.25;12.48;;;;;;;;;;5136257;27;20047;-61
2023/03/01 06:55:26;;;;;;;17.50;11.65;;;;;;;;;;5140333;27;20514;-61
2023/03/01 06:57:56;;;;;;;20.23;12.73;;;;;;;;;;5125211;27;20047;-61
2023/03/01 07:00:23;;;;;;;20.25;12.25;;;;;;;;;;5105898;27;20047;-62
2023/03/01 07:02:50;;;;;;;21.38;12.82;;;;;;;;;;5123203;27;20166;-61
2023/03/01 07:05:16;;;;;;;22.98;12.88;;;;;;;;;;5124420;27;20585;-61
2023/03/01 07:07:43;;;;;;;20.83;12.88;;;;;;;;;;5134350;27;20048;-62
2023/03/01 07:10:09;;;;;;;21.00;12.63;;;;;;;;;;5124313;27;20575;-62
2023/03/01 07:12:36;;;;;;;24.52;13.63;;;;;;;;;;5125244;27;20054;-61
2023/03/01 07:15:02;;;;;;;18.87;12.83;;;;;;;;;;5125307;27;20477;-63
2023/03/01 07:17:29;;;;;;;19.90;12.90;;;;;;;;;;5136587;27;20051;-61
2023/03/01 07:19:56;;;;;;;24.17;13.73;;;;;;;;;;5146306;27;20415;-61
2023/03/01 07:22:22;;;;;;;24.33;15.20;;;;;;;;;;5125203;27;20075;-61
2023/03/01 07:24:48;;;;;;;28.13;14.52;;;;;;;;;;5117555;27;20043;-61
2023/03/01 07:27:15;;;;;;;25.45;15.40;;;;;;;;;;5133207;27;20045;-63
2023/03/01 07:29:41;;;;;;;20.17;13.93;;;;;;;;;;5142317;27;20047;-61
2023/03/01 07:32:08;;;;;;;20.45;13.55;;;;;;;;;;5145775;27;20421;-62
2023/03/01 07:34:34;;;;;;;23.75;14.50;;;;;;;;;;5127321;27;20608;-62
2023/03/01 07:37:01;;;;;;;26.08;14.98;;;;;;;;;;5136073;27;20561;-61
2023/03/01 07:39:27;;;;;;;28.33;14.90;;;;;;;;;;5137964;27;20058;-63
2023/03/01 07:41:53;;;;;;;23.08;13.27;;;;;;;;;;5144394;27;20085;-61
2023/03/01 07:44:20;;;;;;;22.98;14.13;;;;;;;;;;5125530;27;20150;-61
2023/03/01 07:46:46;;;;;;;25.80;14.93;;;;;;;;;;5128440;27;20590;-61
2023/03/01 07:49:12;;;;;;;23.77;15.35;;;;;;;;;;5145240;27;20507;-61
2023/03/01 07:51:39;;;;;;;26.17;14.70;;;;;;;;;;5144627;27;20146;-61
2023/03/01 07:54:05;;;;;;;27.20;16.20;;;;;;;;;;5144592;27;20047;-61
2023/03/01 07:56:32;;;;;;;21.60;14.90;;;;;;;;;;5142350;27;20059;-62
2023/03/01 07:58:59;;;;;;;24.70;16.13;;;;;;;;;;5132909;27;20058;-62
2023/03/01 08:01:25;;;;;;;27.23;16.90;;;;;;;;;;5139684;27;20059;-62
2023/03/01 08:03:52;;;;;;;27.17;16.52;;;;;;;;;;5124508;27;20141;-62
2023/03/01 08:06:18;;;;;;;27.40;16.65;;;;;;;;;;5123721;27;20161;-62
2023/03/01 08:08:45;;;;;;;23.27;15.02;;;;;;;;;;5137524;27;20055;-61
2023/03/01 08:11:12;;;;;;;26.42;16.65;;;;;;;;;;5144210;27;20051;-63
2023/03/01 08:13:39;;;;;;;32.65;17.10;;;;;;;;;;5141205;27;20043;-63
2023/03/01 08:16:07;;;;;;;27.27;16.58;;;;;;;;;;5123822;27;20119;-60
2023/03/01 08:18:33;;;;;;;25.63;16.48;;;;;;;;;;5123230;27;20154;-63
2023/03/01 08:21:04;;;;;;;31.73;17.15;;;;;;;;;;5124977;27;20775;-61
2023/03/01 08:23:30;;;;;;;24.80;14.88;;;;;;;;;;5125032;27;20132;-63
2023/03/01 08:26:04;;;;;;;26.95;14.65;;;;;;;;;;5124598;27;20056;-61
2023/03/01 08:28:31;;;;;;;24.83;16.38;;;;;;;;;;5124881;27;20561;-62
2023/03/01 08:30:57;;;;;;;28.58;17.08;;;;;;;;;;5124058;27;20055;-62
2023/03/01 08:33:23;;;;;;;24.67;14.68;;;;;;;;;;5133033;27;20055;-62
2023/03/01 08:35:50;;;;;;;23.13;15.05;;;;;;;;;;5123374;27;20048;-62
2023/03/01 08:38:16;;;;;;;22.40;13.95;;;;;;;;;;5123882;27;20066;-62
2023/03/01 08:40:43;;;;;;;28.25;13.50;;;;;;;;;;5104696;27;20054;-62
2023/03/01 08:43:09;;;;;;;21.55;13.80;;;;;;;;;;5141288;27;20112;-62
2023/03/01 08:45:35;;;;;;;22.83;14.73;;;;;;;;;;5138248;27;20513;-62
2023/03/01 08:48:02;;;;;;;23.10;13.27;;;;;;;;;;5123738;27;20048;-62
2023/03/01 08:50:28;;;;;;;21.70;12.40;;;;;;;;;;5134806;27;20043;-61
2023/03/01 08:52:55;;;;;;;19.70;12.85;;;;;;;;;;5129277;27;20044;-62
2023/03/01 08:55:21;;;;;;;13.13;8.25;;;;;;;;;;5122223;27;20382;-62
2023/03/01 08:57:48;;;;;;;15.32;9.80;;;;;;;;;;5130133;27;20043;-62
2023/03/01 09:00:14;;;;;;;10.73;8.07;;;;;;;;;;5123483;27;20138;-61
2023/03/01 09:02:41;;;;;;;11.55;7.60;;;;;;;;;;5122957;27;20134;-62
2023/03/01 09:05:07;;;;;;;11.07;7.90;;;;;;;;;;5122631;27;20047;-62
2023/03/01 09:07:34;;;;;;;14.23;8.60;;;;;;;;;;5132314;27;20055;-61
2023/03/01 09:10:00;;;;;;;14.18;8.48;;;;;;;;;;5145013;27;20051;-63
2023/03/01 09:12:26;;;;;;;13.25;8.25;;;;;;;;;;5144569;27;20054;-61
2023/03/01 09:14:53;;;;;;;12.05;7.78;;;;;;;;;;5142322;27;20498;-62
2023/03/01 09:17:21;;;;;;;11.38;7.40;;;;;;;;;;5143584;27;20051;-62
2023/03/01 09:19:48;;;;;;;12.88;7.90;;;;;;;;;;5143500;27;21271;-61
2023/03/01 09:22:14;;;;;;;12.57;7.10;;;;;;;;;;5143745;27;20532;-62
2023/03/01 09:24:41;;;;;;;12.75;6.80;;;;;;;;;;5143491;27;20091;-61
2023/03/01 09:27:08;;;;;;;9.75;7.03;;;;;;;;;;5130890;27;20483;-62
2023/03/01 09:29:36;;;;;;;8.05;5.80;;;;;;;;;;5127340;27;20142;-61
2023/03/01 09:32:02;;;;;;;7.65;5.13;;;;;;;;;;5142835;27;20505;-61
2023/03/01 09:34:29;;;;;;;8.88;5.43;;;;;;;;;;5123384;27;20051;-62
2023/03/01 09:36:56;;;;;;;6.97;5.00;;;;;;;;;;5137124;27;20521;-61
2023/03/01 09:39:23;;;;;;;10.23;5.18;;;;;;;;;;5143165;27;21172;-60
2023/03/01 09:41:55;;;;;;;8.93;5.30;;;;;;;;;;5143380;27;20155;-62
2023/03/01 09:44:51;;;;;;;6.80;4.80;;;;;;;;;;5142243;27;20047;-61
2023/03/01 09:47:22;;;;;;;8.50;5.00;;;;;;;;;;5121673;27;20103;-62
2023/03/01 09:50:01;;;;;;;9.35;5.28;;;;;;;;;;5144350;27;20065;-61
2023/03/01 09:52:48;;;;;;;8.00;5.10;;;;;;;;;;5130616;27;20048;-62
2023/03/01 09:55:16;;;;;;;9.02;5.05;;;;;;;;;;5121785;27;20541;-62
2023/03/01 09:57:46;;;;;;;6.70;4.70;;;;;;;;;;5125630;27;20057;-62
2023/03/01 10:00:12;;;;;;;6.82;4.55;;;;;;;;;;5143096;27;20083;-62
2023/03/01 10:02:43;;;;;;;5.25;3.80;;;;;;;;;;5123248;27;20442;-61
2023/03/01 10:05:15;;;;;;;5.43;3.30;;;;;;;;;;5121905;27;20307;-62
2023/03/01 10:07:52;;;;;;;4.97;3.35;;;;;;;;;;5123059;27;20047;-61
2023/03/01 10:10:28;;;;;;;3.45;2.83;;;;;;;;;;5126923;27;20051;-61
2023/03/01 10:12:56;;;;;;;5.10;3.50;;;;;;;;;;5146767;27;20112;-62
2023/03/01 10:15:30;;;;;;;5.22;3.40;;;;;;;;;;5126092;27;20098;-63
2023/03/01 10:18:00;;;;;;;5.00;3.47;;;;;;;;;;5142074;27;20153;-61
2023/03/01 10:20:33;;;;;;;5.25;2.83;;;;;;;;;;5136327;27;20109;-62
2023/03/01 10:22:59;;;;;;;4.63;3.03;;;;;;;;;;5131963;27;20051;-63
2023/03/01 10:25:38;;;;;;;4.05;3.15;;;;;;;;;;5146414;27;20049;-61
2023/03/01 10:28:16;;;;;;;5.60;3.03;;;;;;;;;;5136889;27;20104;-62
2023/03/01 10:30:43;;;;;;;5.70;3.47;;;;;;;;;;5145481;27;20108;-62
2023/03/01 10:33:20;;;;;;;4.38;3.13;;;;;;;;;;5146158;27;20054;-61
2023/03/01 10:35:47;;;;;;;6.78;3.45;;;;;;;;;;5146345;27;20577;-61
2023/03/01 10:38:14;;;;;;;7.88;3.20;;;;;;;;;;5145335;27;20527;-62
2023/03/01 10:40:56;;;;;;;6.20;3.92;;;;;;;;;;5146062;27;20047;-61
2023/03/01 10:43:23;;;;;;;7.90;4.70;;;;;;;;;;5127161;27;20674;-61
2023/03/01 10:45:50;;;;;;;8.63;4.47;;;;;;;;;;5124894;27;20063;-62
2023/03/01 10:48:21;;;;;;;5.85;3.60;;;;;;;;;;5125536;27;20058;-61
2023/03/01 10:50:49;;;;;;;5.90;3.15;;;;;;;;;;5134036;27;20055;-61
2023/03/01 10:53:21;;;;;;;4.45;3.10;;;;;;;;;;5146073;27;20086;-61
2023/03/01 10:55:55;;;;;;;5.65;2.92;;;;;;;;;;5144761;27;20051;-61
2023/03/01 10:58:22;;;;;;;3.55;2.33;;;;;;;;;;5134698;27;20924;-63
2023/03/01 11:00:56;;;;;;;7.03;2.50;;;;;;;;;;5131165;27;20130;-61
2023/03/01 11:03:27;;;;;;;4.50;2.80;;;;;;;;;;5144565;27;20607;-63
2023/03/01 11:05:56;;;;;;;6.65;3.47;;;;;;;;;;5134398;27;20530;-62
2023/03/01 11:08:41;;;;;;;4.00;2.55;;;;;;;;;;5125087;27;20135;-62
2023/03/01 11:11:17;;;;;;;7.27;3.60;;;;;;;;;;5137590;27;20047;-63
2023/03/01 11:13:52;;;;;;;5.35;3.38;;;;;;;;;;5126917;27;20051;-63
2023/03/01 11:16:26;;;;;;;8.55;3.58;;;;;;;;;;5145397;27;20581;-62
2023/03/01 11:19:00;;;;;;;5.95;2.92;;;;;;;;;;5129135;27;20526;-62
2023/03/01 11:21:28;;;;;;;5.63;3.30;;;;;;;;;;5126102;27;20058;-61
2023/03/01 11:23:57;;;;;;;4.68;2.60;;;;;;;;;;5106316;27;20090;-63
2023/03/01 11:26:23;;;;;;;5.07;2.90;;;;;;;;;;5134745;27;20505;-62
2023/03/01 11:28:51;;;;;;;3.95;2.83;;;;;;;;;;5144121;27;20137;-63
2023/03/01 11:31:18;;;;;;;3.05;2.35;;;;;;;;;;5145030;27;20058;-62
2023/03/01 11:33:45;;;;;;;4.13;2.67;;;;;;;;;;5126065;27;20047;-62
2023/03/01 11:36:30;;;;;;;3.97;2.60;;;;;;;;;;5137560;27;20047;-64
2023/03/01 11:38:57;;;;;;;4.47;2.60;;;;;;;;;;5139316;27;20053;-62
2023/03/01 11:41:25;;;;;;;4.88;3.08;;;;;;;;;;5142329;27;20074;-62
2023/03/01 11:43:54;;;;;;;5.38;2.30;;;;;;;;;;5125153;27;20078;-62
2023/03/01 11:46:20;;;;;;;3.28;2.20;;;;;;;;;;5128379;27;20051;-62
2023/03/01 11:49:06;;;;;;;6.55;2.83;;;;;;;;;;5143849;27;20051;-61
2023/03/01 11:51:41;;;;;;;3.45;2.47;;;;;;;;;;5144990;27;20051;-64
2023/03/01 11:54:17;;;;;;;4.22;2.60;;;;;;;;;;5138724;27;20115;-63
2023/03/01 11:56:46;;;;;;;4.43;2.70;;;;;;;;;;5123966;27;20410;-62
2023/03/01 11:59:18;;;;;;;2.85;2.28;;;;;;;;;;5132934;27;20075;-62
2023/03/01 12:01:51;;;;;;;7.18;3.00;;;;;;;;;;5128055;27;20088;-62
2023/03/01 12:04:20;;;;;;;3.25;2.38;;;;;;;;;;5124330;27;20486;-62
2023/03/01 12:06:55;;;;;;;3.35;2.47;;;;;;;;;;5123960;27;20532;-61
2023/03/01 12:09:23;;;;;;;3.40;2.65;;;;;;;;;;5124230;27;20514;-62
2023/03/01 12:11:49;;;;;;;5.05;2.70;;;;;;;;;;5145082;27;20043;-61
2023/03/01 12:14:21;;;;;;;3.92;2.72;;;;;;;;;;5121413;27;20100;-62
2023/03/01 12:17:00;;;;;;;6.60;3.00;;;;;;;;;;5133208;27;20047;-63
2023/03/01 12:19:50;;;;;;;5.32;2.63;;;;;;;;;;5107703;27;20059;-61
2023/03/01 12:22:19;;;;;;;5.60;3.50;;;;;;;;;;5112556;27;20055;-62
2023/03/01 12:25:04;;;;;;;5.15;3.30;;;;;;;;;;5124649;27;20533;-63
2023/03/01 12:27:49;;;;;;;5.00;3.27;;;;;;;;;;5124300;27;20524;-62
2023/03/01 12:30:19;;;;;;;5.80;3.30;;;;;;;;;;5122880;27;20051;-61
2023/03/01 12:33:01;;;;;;;7.20;3.28;;;;;;;;;;5123459;27;20086;-61
2023/03/01 12:35:47;;;;;;;5.40;3.45;;;;;;;;;;5132293;27;20472;-61
2023/03/01 12:38:40;;;;;;;6.20;3.72;;;;;;;;;;5135936;27;20051;-62
2023/03/01 12:41:15;;;;;;;5.00;3.28;;;;;;;;;;5091246;27;20142;-62
2023/03/01 12:44:00;;;;;;;3.47;3.17;;;;;;;;;;5127461;27;20496;-62
2023/03/01 12:46:33;;;;;;;6.70;2.88;;;;;;;;;;5124549;27;20170;-60
2023/03/01 12:49:10;;;;;;;5.70;3.40;;;;;;;;;;5109197;27;20127;-64
2023/03/01 12:51:37;;;;;;;5.18;3.67;;;;;;;;;;5135614;27;20160;-59
2023/03/01 12:54:13;;;;;;;5.72;3.05;;;;;;;;;;5136460;27;20043;-61
2023/03/01 12:56:40;;;;;;;5.88;3.35;;;;;;;;;;5124767;27;20725;-63
2023/03/01 12:59:26;;;;;;;3.88;2.88;;;;;;;;;;5144470;27;20055;-63
2023/03/01 13:02:01;;;;;;;4.35;3.40;;;;;;;;;;5143783;27;20081;-62
2023/03/01 13:04:40;;;;;;;6.70;3.00;;;;;;;;;;5143612;27;20100;-63
2023/03/01 13:07:09;;;;;;;4.15;2.70;;;;;;;;;;5134509;27;20372;-62
2023/03/01 13:09:36;;;;;;;2.92;2.63;;;;;;;;;;5143454;27;20043;-62
2023/03/01 13:12:02;;;;;;;5.40;3.33;;;;;;;;;;5144260;27;20108;-63
2023/03/01 13:14:36;;;;;;;3.70;2.50;;;;;;;;;;5143944;27;20142;-62
2023/03/01 13:17:03;;;;;;;5.18;2.95;;;;;;;;;;5129275;27;20515;-62
2023/03/01 13:19:31;;;;;;;4.05;3.17;;;;;;;;;;5131643;27;20055;-62
2023/03/01 13:21:58;;;;;;;3.88;2.75;;;;;;;;;;5142128;27;20827;-61
2023/03/01 13:24:25;;;;;;;3.47;2.33;;;;;;;;;;5144161;27;20499;-62
2023/03/01 13:27:06;;;;;;;4.32;2.95;;;;;;;;;;5139937;27;20383;-63
2023/03/01 13:29:45;;;;;;;3.97;2.92;;;;;;;;;;5123120;27;20131;-62
2023/03/01 13:32:41;;;;;;;4.68;3.20;;;;;;;;;;5132955;27;20421;-62
2023/03/01 13:35:10;;;;;;;3.78;3.20;;;;;;;;;;5134954;27;20517;-62
2023/03/01 13:37:37;;;;;;;4.35;2.80;;;;;;;;;;5122748;27;20582;-62
2023/03/01 13:40:18;;;;;;;6.72;3.20;;;;;;;;;;5129222;27;20104;-62
2023/03/01 13:42:46;;;;;;;5.07;3.30;;;;;;;;;;5142401;27;20039;-62
2023/03/01 13:45:54;;;;;;;6.00;3.53;;;;;;;;;;5142794;27;20050;-64
2023/03/01 13:48:30;;;;;;;5.57;3.05;;;;;;;;;;5111992;27;20057;-64
2023/03/01 13:51:02;;;;;;;3.90;3.15;;;;;;;;;;5122503;27;20052;-63
2023/03/01 13:53:35;;;;;;;3.15;2.72;;;;;;;;;;5123292;27;20055;-63
2023/03/01 13:56:21;;;;;;;4.47;2.90;;;;;;;;;;5122851;27;20052;-63
2023/03/01 13:58:50;;;;;;;5.25;3.30;;;;;;;;;;5122366;27;20051;-63
2023/03/01 14:01:27;;;;;;;5.53;3.15;;;;;;;;;;5139575;27;20093;-63
2023/03/01 14:03:54;;;;;;;5.55;3.38;;;;;;;;;;5130169;27;20058;-61
2023/03/01 14:06:25;;;;;;;5.05;3.00;;;;;;;;;;5128686;27;20066;-62
2023/03/01 14:09:15;;;;;;;5.20;3.47;;;;;;;;;;5142500;27;20760;-62
2023/03/01 14:11:42;;;;;;;4.57;3.05;;;;;;;;;;5143244;27;20047;-63
2023/03/01 14:14:19;;;;;;;5.70;2.83;;;;;;;;;;5141707;27;20046;-61
2023/03/01 14:17:04;;;;;;;9.68;3.05;;;;;;;;;;5128210;27;20703;-62
2023/03/01 14:19:31;;;;;;;4.28;3.20;;;;;;;;;;5133106;27;20134;-63
2023/03/01 14:22:18;;;;;;;5.28;3.05;;;;;;;;;;5137735;27;20044;-62
2023/03/01 14:24:46;;;;;;;6.22;2.88;;;;;;;;;;5121541;27;20048;-62
2023/03/01 14:27:13;;;;;;;7.55;3.75;;;;;;;;;;5122380;27;20508;-62
2023/03/01 14:29:40;;;;;;;5.38;2.70;;;;;;;;;;5136026;27;20112;-62
2023/03/01 14:32:11;;;;;;;3.20;2.90;;;;;;;;;;5141833;27;20450;-64
2023/03/01 14:34:42;;;;;;;5.82;3.53;;;;;;;;;;5141173;27;20054;-62
2023/03/01 14:37:19;;;;;;;5.40;3.80;;;;;;;;;;5142807;27;20142;-62
2023/03/01 14:39:45;;;;;;;5.90;3.35;;;;;;;;;;5139058;27;20051;-63
2023/03/01 14:42:13;;;;;;;4.57;3.00;;;;;;;;;;5128933;27;20138;-61
2023/03/01 14:44:46;;;;;;;6.38;3.28;;;;;;;;;;5121196;27;20051;-62